createdAt,value
2022-09-30T00:01:25.969Z,7.10
2022-09-30T00:03:57.711Z,7.20
2022-09-30T00:06:27.429Z,7.20
2022-09-30T00:08:54.687Z,7.20
2022-09-30T00:11:25.902Z,7.20
2022-09-30T00:13:55.612Z,7.20
2022-09-30T00:16:26.423Z,7.20
2022-09-30T00:18:56.254Z,7.20
2022-09-30T00:21:23.722Z,7.20
2022-09-30T00:23:51.183Z,7.20
2022-09-30T00:26:22.253Z,7.30
2022-09-30T00:28:58.871Z,7.30
2022-09-30T00:31:31.172Z,7.30
2022-09-30T00:34:07.738Z,7.40
2022-09-30T00:36:53.490Z,7.40
2022-09-30T00:39:27.692Z,7.40
2022-09-30T00:42:01.863Z,7.40
2022-09-30T00:44:57.048Z,7.40
2022-09-30T00:48:16.416Z,7.40
2022-09-30T00:50:48.865Z,7.30
2022-09-30T00:53:51.718Z,7.20
2022-09-30T00:56:28.759Z,7.20
2022-09-30T00:59:15.092Z,7.20
2022-09-30T01:01:43.895Z,7.20
2022-09-30T01:04:17.371Z,7.20
2022-09-30T01:06:44.718Z,7.20
2022-09-30T01:09:12.458Z,7.30
2022-09-30T01:11:39.649Z,7.30
2022-09-30T01:14:16.054Z,7.40
2022-09-30T01:17:11.353Z,7.40
2022-09-30T01:20:22.079Z,7.40
2022-09-30T01:23:16.466Z,7.40
2022-09-30T01:26:08.106Z,7.50
2022-09-30T01:29:18.609Z,7.50
2022-09-30T01:32:27.153Z,7.60
2022-09-30T01:35:28.101Z,7.60
2022-09-30T01:38:20.143Z,7.60
2022-09-30T01:41:05.836Z,7.50
2022-09-30T01:43:41.382Z,7.60
2022-09-30T01:46:44.620Z,7.60
2022-09-30T01:49:38.666Z,7.70
2022-09-30T01:52:30.455Z,7.70
2022-09-30T01:55:06.792Z,7.70
2022-09-30T01:57:46.743Z,7.70
2022-09-30T02:00:15.463Z,7.70
2022-09-30T02:03:12.827Z,7.70
2022-09-30T02:05:55.075Z,7.70
2022-09-30T02:08:46.341Z,7.80
2022-09-30T02:11:30.126Z,7.80
2022-09-30T02:14:23.356Z,7.80
2022-09-30T02:17:24.684Z,7.80
2022-09-30T02:20:00.750Z,7.80
2022-09-30T02:22:55.422Z,7.80
2022-09-30T02:25:30.053Z,7.80
2022-09-30T02:28:01.879Z,7.80
2022-09-30T02:30:29.632Z,7.80
2022-09-30T02:33:04.602Z,7.80
2022-09-30T02:35:41.502Z,7.80
2022-09-30T02:38:31.448Z,7.70
2022-09-30T02:41:10.627Z,7.70
2022-09-30T02:43:42.284Z,7.70
2022-09-30T02:46:35.356Z,7.70
2022-09-30T02:49:21.997Z,7.80
2022-09-30T02:52:03.817Z,7.70
2022-09-30T02:54:43.475Z,7.60
2022-09-30T02:57:27.226Z,7.70
2022-09-30T02:59:54.310Z,7.60
2022-09-30T03:02:22.110Z,7.50
2022-09-30T03:04:51.253Z,7.50
2022-09-30T03:07:18.887Z,7.50
2022-09-30T03:09:45.958Z,7.50
2022-09-30T03:12:49.803Z,7.60
2022-09-30T03:15:46.675Z,7.50
2022-09-30T03:18:37.754Z,7.50
2022-09-30T03:21:32.324Z,7.50
2022-09-30T03:24:48.112Z,7.50
2022-09-30T03:27:41.051Z,7.50
2022-09-30T03:30:21.017Z,7.60
2022-09-30T03:33:12.261Z,7.60
2022-09-30T03:36:00.555Z,7.70
2022-09-30T03:38:30.423Z,7.80
2022-09-30T03:41:22.820Z,7.80
2022-09-30T03:44:33.891Z,7.90
2022-09-30T03:47:10.459Z,7.90
2022-09-30T03:49:46.718Z,7.90
2022-09-30T03:52:15.129Z,8.00
2022-09-30T03:55:05.188Z,8.00
2022-09-30T03:57:32.227Z,8.00
2022-09-30T04:00:00.210Z,8.00
2022-09-30T04:02:28.070Z,8.00
2022-09-30T04:04:55.340Z,8.00
2022-09-30T04:07:22.349Z,8.00
2022-09-30T04:09:49.434Z,8.00
2022-09-30T04:12:16.836Z,8.00
2022-09-30T04:14:43.905Z,7.90
2022-09-30T04:17:10.953Z,7.80
2022-09-30T04:19:40.375Z,7.70
2022-09-30T04:22:08.552Z,7.60
2022-09-30T04:24:36.031Z,7.70
2022-09-30T04:27:03.928Z,7.70
2022-09-30T04:29:31.229Z,7.80
2022-09-30T04:31:58.262Z,7.80
2022-09-30T04:34:25.360Z,7.70
2022-09-30T04:36:52.468Z,7.70
2022-09-30T04:39:19.458Z,7.60
2022-09-30T04:41:46.942Z,7.60
2022-09-30T04:44:13.931Z,7.50
2022-09-30T04:46:40.928Z,7.50
2022-09-30T04:49:09.533Z,7.30
2022-09-30T04:51:38.481Z,7.20
2022-09-30T04:54:05.703Z,7.10
2022-09-30T04:56:33.113Z,6.90
2022-09-30T04:59:00.140Z,6.80
2022-09-30T05:01:27.196Z,6.60
2022-09-30T05:03:55.175Z,6.60
2022-09-30T05:06:22.355Z,6.60
2022-09-30T05:08:49.562Z,6.40
2022-09-30T05:11:20.372Z,6.40
2022-09-30T05:13:48.995Z,6.30
2022-09-30T05:16:17.442Z,6.20
2022-09-30T05:18:46.513Z,6.10
2022-09-30T05:21:22.244Z,6.10
2022-09-30T05:23:49.337Z,6.00
2022-09-30T05:26:16.844Z,6.00
2022-09-30T05:28:44.455Z,6.00
2022-09-30T05:31:13.607Z,5.90
2022-09-30T05:33:42.042Z,5.80
2022-09-30T05:36:14.441Z,5.80
2022-09-30T05:38:41.899Z,5.80
2022-09-30T05:41:12.407Z,5.80
2022-09-30T05:43:42.227Z,5.70
2022-09-30T05:46:09.225Z,5.70
2022-09-30T05:48:36.570Z,5.60
2022-09-30T05:51:03.846Z,5.60
2022-09-30T05:53:32.374Z,5.60
2022-09-30T05:55:59.700Z,5.60
2022-09-30T05:58:27.670Z,5.60
2022-09-30T06:00:55.193Z,5.60
2022-09-30T06:03:22.446Z,5.60
2022-09-30T06:05:56.241Z,5.70
2022-09-30T06:08:24.012Z,5.70
2022-09-30T06:10:51.374Z,5.70
2022-09-30T06:13:18.583Z,5.80
2022-09-30T06:15:57.092Z,5.90
2022-09-30T06:18:25.769Z,5.90
2022-09-30T06:20:56.347Z,6.00
2022-09-30T06:23:23.351Z,6.10
2022-09-30T06:25:51.941Z,6.20
2022-09-30T06:28:20.119Z,6.30
2022-09-30T06:30:48.745Z,6.30
2022-09-30T06:33:17.511Z,6.40
2022-09-30T06:35:44.655Z,6.40
2022-09-30T06:38:12.149Z,6.50
2022-09-30T06:40:39.192Z,6.60
2022-09-30T06:43:06.750Z,6.60
2022-09-30T06:45:35.739Z,6.70
2022-09-30T06:48:05.660Z,6.70
2022-09-30T06:50:33.769Z,6.80
2022-09-30T06:53:03.790Z,6.90
2022-09-30T06:55:31.133Z,6.90
2022-09-30T06:57:58.583Z,6.90
2022-09-30T07:00:29.010Z,6.90
2022-09-30T07:02:59.468Z,6.90
2022-09-30T07:05:26.659Z,6.90
2022-09-30T07:07:54.611Z,7.00
2022-09-30T07:10:21.837Z,7.10
2022-09-30T07:12:53.194Z,7.10
2022-09-30T07:15:24.028Z,7.20
2022-09-30T07:17:56.695Z,7.30
2022-09-30T07:20:24.081Z,7.30
2022-09-30T07:22:51.212Z,7.40
2022-09-30T07:25:18.714Z,7.40
2022-09-30T07:27:46.941Z,7.50
2022-09-30T07:30:22.721Z,7.60
2022-09-30T07:32:53.639Z,7.70
2022-09-30T07:35:20.813Z,7.80
2022-09-30T07:37:47.866Z,7.90
2022-09-30T07:40:15.399Z,7.90
2022-09-30T07:42:45.893Z,8.00
2022-09-30T07:45:17.177Z,8.10
2022-09-30T07:47:44.350Z,8.20
2022-09-30T07:50:15.601Z,8.40
2022-09-30T07:52:42.811Z,8.50
2022-09-30T07:55:10.028Z,8.70
2022-09-30T07:57:37.031Z,8.90
2022-09-30T08:00:23.104Z,9.10
2022-09-30T08:02:51.854Z,9.20
2022-09-30T08:05:18.956Z,9.40
2022-09-30T08:07:45.956Z,9.50
2022-09-30T08:10:13.048Z,9.70
2022-09-30T08:12:40.218Z,9.80
2022-09-30T08:15:09.773Z,9.90
2022-09-30T08:17:36.730Z,10.00
2022-09-30T08:20:04.316Z,10.10
2022-09-30T08:22:31.347Z,10.20
2022-09-30T08:24:58.370Z,10.30
2022-09-30T08:27:25.524Z,10.40
2022-09-30T08:29:55.509Z,10.40
2022-09-30T08:32:23.710Z,10.60
2022-09-30T08:34:50.743Z,10.60
2022-09-30T08:37:18.475Z,10.70
2022-09-30T08:39:46.864Z,10.80
2022-09-30T08:43:01.814Z,11.00
2022-09-30T08:45:54.589Z,11.10
2022-09-30T08:48:32.906Z,11.10
2022-09-30T08:51:30.915Z,11.20
2022-09-30T08:54:02.608Z,11.20
2022-09-30T08:56:34.718Z,11.20
2022-09-30T08:59:15.328Z,11.30
2022-09-30T09:01:48.990Z,11.30
2022-09-30T09:04:19.280Z,11.40
2022-09-30T09:06:58.940Z,11.50
2022-09-30T09:09:42.755Z,11.60
2022-09-30T09:12:19.037Z,11.80
2022-09-30T09:15:22.641Z,11.90
2022-09-30T09:18:39.471Z,12.00
2022-09-30T09:21:12.350Z,12.20
2022-09-30T09:23:39.687Z,12.20
2022-09-30T09:26:07.177Z,12.30
2022-09-30T09:28:45.934Z,12.40
2022-09-30T09:31:17.717Z,12.50
2022-09-30T09:33:45.947Z,12.50
2022-09-30T09:36:24.079Z,12.60
2022-09-30T09:39:15.802Z,12.80
2022-09-30T09:42:12.192Z,12.80
2022-09-30T09:44:48.875Z,12.90
2022-09-30T09:47:17.335Z,13.00
2022-09-30T09:49:46.906Z,13.20
2022-09-30T09:52:13.896Z,13.20
2022-09-30T09:54:42.197Z,13.30
2022-09-30T09:57:12.506Z,13.40
2022-09-30T10:00:26.895Z,13.50
2022-09-30T10:03:26.373Z,13.70
2022-09-30T10:06:13.231Z,13.80
2022-09-30T10:08:55.650Z,13.80
2022-09-30T10:11:26.140Z,13.90
2022-09-30T10:13:58.795Z,14.00
2022-09-30T10:16:37.856Z,14.10
2022-09-30T10:19:22.671Z,14.00
2022-09-30T10:21:51.874Z,14.10
2022-09-30T10:24:32.056Z,14.10
2022-09-30T10:26:59.104Z,14.30
2022-09-30T10:29:34.236Z,14.40
2022-09-30T10:32:09.094Z,14.60
2022-09-30T10:34:41.939Z,14.70
2022-09-30T10:37:18.928Z,15.00
2022-09-30T10:40:01.432Z,15.00
2022-09-30T10:42:32.984Z,15.00
2022-09-30T10:45:20.210Z,14.70
2022-09-30T10:47:53.788Z,14.70
2022-09-30T10:50:25.168Z,14.80
2022-09-30T10:53:00.759Z,14.70
2022-09-30T10:55:42.410Z,14.70
2022-09-30T10:58:41.614Z,14.80
2022-09-30T11:01:35.863Z,14.90
2022-09-30T11:04:27.303Z,15.10
2022-09-30T11:07:02.655Z,15.00
2022-09-30T11:09:38.673Z,15.40
2022-09-30T11:12:38.291Z,15.70
2022-09-30T11:15:45.095Z,16.00
2022-09-30T11:18:12.033Z,16.40
2022-09-30T11:21:07.341Z,16.90
2022-09-30T11:23:43.758Z,16.90
2022-09-30T11:26:32.079Z,17.30
2022-09-30T11:29:19.934Z,18.20
2022-09-30T11:31:51.997Z,18.70
2022-09-30T11:35:01.888Z,19.30
2022-09-30T11:37:53.568Z,20.00
2022-09-30T11:41:02.130Z,19.70
2022-09-30T11:44:09.838Z,19.60
2022-09-30T11:47:03.266Z,19.70
2022-09-30T11:49:51.107Z,19.40
2022-09-30T11:52:39.887Z,19.90
2022-09-30T11:55:38.890Z,20.30
2022-09-30T11:58:39.989Z,20.70
2022-09-30T12:01:16.128Z,20.80
2022-09-30T12:03:48.349Z,21.30
2022-09-30T12:06:35.903Z,20.50
2022-09-30T12:09:19.876Z,20.30
2022-09-30T12:12:15.306Z,19.40
2022-09-30T12:14:56.481Z,19.10
2022-09-30T12:17:34.671Z,19.50
2022-09-30T12:20:19.078Z,20.00
2022-09-30T12:22:49.111Z,19.50
2022-09-30T12:25:40.335Z,19.00
2022-09-30T12:28:53.183Z,18.80
2022-09-30T12:31:28.939Z,18.60
2022-09-30T12:34:21.591Z,19.00
2022-09-30T12:37:31.121Z,18.30
2022-09-30T12:40:33.886Z,18.30
2022-09-30T12:44:05.885Z,18.80
2022-09-30T12:47:00.733Z,19.30
2022-09-30T12:49:29.829Z,18.80
2022-09-30T12:52:03.592Z,18.30
2022-09-30T12:54:39.998Z,18.80
2022-09-30T12:57:11.850Z,18.90
2022-09-30T12:59:52.693Z,18.70
2022-09-30T13:02:55.394Z,19.10
2022-09-30T13:05:30.936Z,19.00
2022-09-30T13:08:06.693Z,19.40
2022-09-30T13:10:39.689Z,20.00
2022-09-30T13:14:35.219Z,20.50
2022-09-30T13:17:08.150Z,20.60
2022-09-30T13:19:41.039Z,20.80
2022-09-30T13:22:29.813Z,21.00
2022-09-30T13:25:05.925Z,20.90
2022-09-30T13:28:13.036Z,20.10
2022-09-30T13:30:40.523Z,20.20
2022-09-30T13:33:30.918Z,19.60
2022-09-30T13:36:07.714Z,18.60
2022-09-30T13:38:40.216Z,17.60
2022-09-30T13:41:24.684Z,17.40
2022-09-30T13:44:03.664Z,17.30
2022-09-30T13:46:43.530Z,16.90
2022-09-30T13:49:22.052Z,17.10
2022-09-30T13:51:49.207Z,17.20
2022-09-30T13:54:37.768Z,17.10
2022-09-30T13:57:07.612Z,16.90
2022-09-30T14:00:06.584Z,16.70
2022-09-30T14:03:04.019Z,16.50
2022-09-30T14:05:40.531Z,16.40
2022-09-30T14:08:32.067Z,16.30
2022-09-30T14:11:20.994Z,16.20
2022-09-30T14:14:24.967Z,16.10
2022-09-30T14:17:23.238Z,16.10
2022-09-30T14:20:24.226Z,16.20
2022-09-30T14:22:51.474Z,16.30
2022-09-30T14:25:23.511Z,16.40
2022-09-30T14:28:05.505Z,16.40
2022-09-30T14:31:06.695Z,16.20
2022-09-30T14:33:34.622Z,16.10
2022-09-30T14:36:13.756Z,15.80
2022-09-30T14:38:46.830Z,15.60
2022-09-30T14:41:20.795Z,15.40
2022-09-30T14:43:53.160Z,15.20
2022-09-30T14:46:35.109Z,15.20
2022-09-30T14:49:09.676Z,15.10
2022-09-30T14:51:43.596Z,14.80
2022-09-30T14:54:23.088Z,14.70
2022-09-30T14:56:54.558Z,14.50
2022-09-30T14:59:27.197Z,14.40
2022-09-30T15:02:01.677Z,14.40
2022-09-30T15:04:39.453Z,14.20
2022-09-30T15:07:11.587Z,14.20
2022-09-30T15:09:50.342Z,14.40
2022-09-30T15:12:22.697Z,14.70
2022-09-30T15:14:52.488Z,15.00
2022-09-30T15:17:21.638Z,15.40
2022-09-30T15:19:50.352Z,15.70
2022-09-30T15:22:18.714Z,15.80
2022-09-30T15:24:47.986Z,16.00
2022-09-30T15:27:30.278Z,16.10
2022-09-30T15:30:22.569Z,15.80
2022-09-30T15:32:58.245Z,15.70
2022-09-30T15:35:25.337Z,15.60
2022-09-30T15:37:53.029Z,15.60
2022-09-30T15:40:41.747Z,15.50
2022-09-30T15:43:11.908Z,15.40
2022-09-30T15:45:44.443Z,15.20
2022-09-30T15:48:26.861Z,15.00
2022-09-30T15:51:01.297Z,14.80
2022-09-30T15:53:53.208Z,14.70
2022-09-30T15:56:20.196Z,14.50
2022-09-30T15:59:07.856Z,14.40
2022-09-30T16:01:52.546Z,14.40
2022-09-30T16:04:19.518Z,14.40
2022-09-30T16:07:10.063Z,14.30
2022-09-30T16:09:40.854Z,14.10
2022-09-30T16:12:22.194Z,13.90
2022-09-30T16:15:07.811Z,13.60
2022-09-30T16:17:39.978Z,13.30
2022-09-30T16:20:17.482Z,13.00
2022-09-30T16:22:44.559Z,12.70
2022-09-30T16:25:21.911Z,12.50
2022-09-30T16:28:16.083Z,12.40
2022-09-30T16:30:47.337Z,12.20
2022-09-30T16:33:15.889Z,12.00
2022-09-30T16:35:49.653Z,11.90
2022-09-30T16:38:18.457Z,11.70
2022-09-30T16:40:45.558Z,11.50
2022-09-30T16:43:12.635Z,11.40
2022-09-30T16:45:41.037Z,11.30
2022-09-30T16:48:19.135Z,11.10
2022-09-30T16:51:02.245Z,11.00
2022-09-30T16:53:29.352Z,10.90
2022-09-30T16:55:56.643Z,10.70
2022-09-30T16:58:23.940Z,10.60
2022-09-30T17:00:51.790Z,10.50
2022-09-30T17:03:21.106Z,10.40
2022-09-30T17:05:57.881Z,10.30
2022-09-30T17:08:24.962Z,10.30
2022-09-30T17:10:52.018Z,10.10
2022-09-30T17:13:19.598Z,10.00
2022-09-30T17:15:52.942Z,10.00
2022-09-30T17:18:20.271Z,9.90
2022-09-30T17:20:52.918Z,9.80
2022-09-30T17:23:25.610Z,9.70
2022-09-30T17:25:53.813Z,9.60
2022-09-30T17:28:22.130Z,9.60
2022-09-30T17:30:50.508Z,9.50
2022-09-30T17:33:20.012Z,9.50
2022-09-30T17:36:04.858Z,9.40
2022-09-30T17:38:32.626Z,9.40
2022-09-30T17:41:19.747Z,9.40
2022-09-30T17:43:46.992Z,9.30
2022-09-30T17:46:21.284Z,9.30
2022-09-30T17:48:50.225Z,9.20
2022-09-30T17:51:17.474Z,9.10
2022-09-30T17:53:44.898Z,9.10
2022-09-30T17:56:22.491Z,9.00
2022-09-30T17:58:51.065Z,9.00
2022-09-30T18:01:21.038Z,8.90
2022-09-30T18:03:48.125Z,8.80
2022-09-30T18:06:15.287Z,8.80
2022-09-30T18:08:42.748Z,8.70
2022-09-30T18:11:10.110Z,8.60
2022-09-30T18:13:37.180Z,8.60
2022-09-30T18:16:08.135Z,8.50
2022-09-30T18:18:35.826Z,8.50
2022-09-30T18:21:02.879Z,8.40
2022-09-30T18:23:30.055Z,8.40
2022-09-30T18:25:58.020Z,8.40
2022-09-30T18:28:25.301Z,8.30
2022-09-30T18:30:52.353Z,8.30
2022-09-30T18:33:21.683Z,8.20
2022-09-30T18:35:49.363Z,8.30
2022-09-30T18:38:16.420Z,8.20
2022-09-30T18:40:45.740Z,8.20
2022-09-30T18:43:14.599Z,8.20
2022-09-30T18:45:43.741Z,8.20
2022-09-30T18:48:11.276Z,8.20
2022-09-30T18:50:38.898Z,8.10
2022-09-30T18:53:09.786Z,8.10
2022-09-30T18:55:38.612Z,8.10
2022-09-30T18:58:05.713Z,8.00
2022-09-30T19:00:32.870Z,8.00
2022-09-30T19:02:59.965Z,7.90
2022-09-30T19:05:27.490Z,7.90
2022-09-30T19:07:56.048Z,7.80
2022-09-30T19:10:24.527Z,7.80
2022-09-30T19:12:52.093Z,7.80
2022-09-30T19:15:19.497Z,7.70
2022-09-30T19:17:47.132Z,7.60
2022-09-30T19:20:17.843Z,7.60
2022-09-30T19:22:45.698Z,7.60
2022-09-30T19:25:13.068Z,7.50
2022-09-30T19:27:42.135Z,7.50
2022-09-30T19:30:13.029Z,7.40
2022-09-30T19:32:40.749Z,7.40
2022-09-30T19:35:12.060Z,7.40
2022-09-30T19:37:59.009Z,7.40
2022-09-30T19:40:30.445Z,7.40
2022-09-30T19:42:57.843Z,7.40
2022-09-30T19:45:26.384Z,7.50
2022-09-30T19:47:54.214Z,7.50
2022-09-30T19:50:21.482Z,7.50
2022-09-30T19:52:56.917Z,7.50
2022-09-30T19:55:26.132Z,7.50
2022-09-30T19:57:53.302Z,7.50
2022-09-30T20:00:20.443Z,7.50
2022-09-30T20:02:47.490Z,7.50
2022-09-30T20:05:14.817Z,7.50
2022-09-30T20:07:41.874Z,7.40
2022-09-30T20:10:09.649Z,7.40
2022-09-30T20:12:36.780Z,7.30
2022-09-30T20:15:22.462Z,7.30
2022-09-30T20:17:49.470Z,7.30
2022-09-30T20:20:34.717Z,7.20
2022-09-30T20:23:01.806Z,7.20
2022-09-30T20:25:30.067Z,7.10
2022-09-30T20:27:57.135Z,7.10
2022-09-30T20:30:25.140Z,7.10
2022-09-30T20:32:53.299Z,7.10
2022-09-30T20:35:21.934Z,7.00
2022-09-30T20:37:49.031Z,7.00
2022-09-30T20:40:16.351Z,7.10
2022-09-30T20:42:43.663Z,7.10
2022-09-30T20:45:11.659Z,7.00
2022-09-30T20:47:40.506Z,7.00
2022-09-30T20:50:08.168Z,7.00
2022-09-30T20:52:35.231Z,6.90
2022-09-30T20:55:02.476Z,6.90
2022-09-30T20:57:30.270Z,6.80
2022-09-30T20:59:59.865Z,6.80
2022-09-30T21:02:28.217Z,6.80
2022-09-30T21:04:57.946Z,6.80
2022-09-30T21:07:26.144Z,6.80
2022-09-30T21:09:53.327Z,6.70
2022-09-30T21:12:20.502Z,6.70
2022-09-30T21:14:47.824Z,6.70
2022-09-30T21:17:15.211Z,6.70
2022-09-30T21:19:42.301Z,6.70
2022-09-30T21:22:09.649Z,6.70
2022-09-30T21:24:36.640Z,6.80
2022-09-30T21:27:06.051Z,6.80
2022-09-30T21:29:33.437Z,6.80
2022-09-30T21:32:00.881Z,6.80
2022-09-30T21:34:28.245Z,6.80
2022-09-30T21:36:55.255Z,6.80
2022-09-30T21:39:22.302Z,6.70
2022-09-30T21:41:49.393Z,6.80
2022-09-30T21:44:16.839Z,6.80
2022-09-30T21:46:48.221Z,6.70
2022-09-30T21:49:23.910Z,6.60
2022-09-30T21:51:55.327Z,6.60
2022-09-30T21:54:23.471Z,6.60
2022-09-30T21:56:51.483Z,6.50
2022-09-30T21:59:18.802Z,6.40
2022-09-30T22:01:46.480Z,6.40
2022-09-30T22:04:13.535Z,6.30
2022-09-30T22:06:40.531Z,6.20
2022-09-30T22:09:07.726Z,6.20
2022-09-30T22:11:35.004Z,6.10
2022-09-30T22:14:02.492Z,6.10
2022-09-30T22:16:35.113Z,6.10
2022-09-30T22:19:05.861Z,6.10
2022-09-30T22:21:35.552Z,6.10
2022-09-30T22:24:05.810Z,6.10
2022-09-30T22:26:33.438Z,6.20
2022-09-30T22:29:13.689Z,6.20
2022-09-30T22:31:40.998Z,6.20
2022-09-30T22:34:32.249Z,6.20
2022-09-30T22:37:18.334Z,6.20
2022-09-30T22:39:45.383Z,6.20
2022-09-30T22:42:12.423Z,6.10
2022-09-30T22:44:39.463Z,6.10
2022-09-30T22:47:09.842Z,6.10
2022-09-30T22:49:36.885Z,6.20
2022-09-30T22:52:04.321Z,6.20
2022-09-30T22:54:32.029Z,6.20
2022-09-30T22:57:01.854Z,6.30
2022-09-30T22:59:30.235Z,6.30
2022-09-30T23:01:58.006Z,6.30
2022-09-30T23:04:28.265Z,6.30
2022-09-30T23:06:55.769Z,6.20
2022-09-30T23:09:23.316Z,6.20
2022-09-30T23:11:54.196Z,6.20
2022-09-30T23:14:22.351Z,6.20
2022-09-30T23:16:49.792Z,6.20
2022-09-30T23:19:16.914Z,6.20
2022-09-30T23:21:44.040Z,6.20
2022-09-30T23:24:12.191Z,6.10
2022-09-30T23:26:39.827Z,6.10
2022-09-30T23:29:11.629Z,6.10
2022-09-30T23:31:39.243Z,6.10
2022-09-30T23:34:06.586Z,6.10
2022-09-30T23:36:36.731Z,6.10
2022-09-30T23:39:20.828Z,6.20
2022-09-30T23:41:49.890Z,6.10
2022-09-30T23:44:20.521Z,6.10
2022-09-30T23:47:07.415Z,6.10
2022-09-30T23:49:36.019Z,6.00
2022-09-30T23:52:09.207Z,6.00
2022-09-30T23:54:40.884Z,6.20
2022-09-30T23:57:08.448Z,6.40
2022-09-30T23:59:35.682Z,6.90
